Главная страница
METAR-TAF:

METAR-TAF

Аэропорты :

Илам, Иран

широта: 33-35-09N, долгота: 046-24-20E, высота над уровнем моря: 1334 м

Текущие метеонаблюдения

Эта сводка был подготовлена 1 час и 8 минут назад, в 19:00 UTC
Ветер 2 Узел от северо-восточный
Температура 22°C
Влажность 27%
Давление 1017 hPa
Видимость 10 км и более
Нет облачности ниже 1500 м, и нет кучево-дождевой облачности

METAR: OICI 171900Z 04002KT CAVOK 22/02 Q1016 A3002

Время: 00:38 (20:08 UTC)

Прогноз

Эта сводка был подготовлена 2 часа и 38 минут назад, в 17:30 UTC
Прогноз действительный с 17-го 18 UTC до 18-го 24 UTC
Ветер 8 Узел от западно-северо-западный
Видимость: 8000 м

TAF: OICI 171730Z 1718/1824 30008KT 8000 NSC

Метеонаблюдения и прогнозы для более 4000 аэропортов (сводки METAR и TAF).

Имеющиеся станции представлены на карте желтыми и красными точками.

Чтобы увидеть название станции, наведите на нее мышь.

Затем щелкните, чтобы увидеть метеонаблюдения и метеопрогнозы.

Управление картой: чтобы увеличить масштаб, щелкните зеленые кнопки с черным крестиком; чтобы уменьшить масштаб, щелкните зеленую кнопку с тире; для просмотра соседних карт щелкайте зеленые стрелки.


METAR-TAF: